createdAt,value
2023-02-06T00:03:05.264Z,95528.69
2023-02-06T00:08:08.205Z,95534.09
2023-02-06T00:13:09.774Z,95529.09
2023-02-06T00:18:11.647Z,95545.75
2023-02-06T00:23:14.838Z,95541.75
2023-02-06T00:28:16.500Z,95541.06
2023-02-06T00:33:19.318Z,95540.38
2023-02-06T00:38:23.985Z,95547.38
2023-02-06T00:43:25.688Z,95557.16
2023-02-06T00:48:27.307Z,95565.88
2023-02-06T00:53:30.224Z,95561.94
2023-02-06T00:58:31.804Z,95564.44
2023-02-06T01:03:33.392Z,95562.88
2023-02-06T01:08:36.288Z,95567.69
2023-02-06T01:13:37.830Z,95563.09
2023-02-06T01:18:39.553Z,95574.47
2023-02-06T01:23:43.346Z,95573.22
2023-02-06T01:28:46.967Z,95559.13
2023-02-06T01:33:49.479Z,95554.91
2023-02-06T01:38:52.553Z,95544.59
2023-02-06T01:44:10.323Z,95541.75
2023-02-06T01:49:17.141Z,95536.97
2023-02-06T01:54:20.538Z,95539.13
2023-02-06T01:59:22.324Z,95525.84
2023-02-06T02:04:27.465Z,95515.63
2023-02-06T02:09:30.468Z,95515.78
2023-02-06T02:14:32.316Z,95529.06
2023-02-06T02:20:14.619Z,95529.38
2023-02-06T02:25:55.301Z,95526.03
2023-02-06T02:31:19.273Z,95532.25
2023-02-06T02:36:26.074Z,95526.97
2023-02-06T02:41:33.951Z,95543.69
2023-02-06T02:46:38.576Z,95546.88
2023-02-06T02:51:42.816Z,95545.75
2023-02-06T02:56:44.400Z,95542.94
2023-02-06T03:01:52.256Z,95538.16
2023-02-06T03:07:04.171Z,95535.34
2023-02-06T03:12:13.483Z,95547.31
2023-02-06T03:17:22.374Z,95551.22
2023-02-06T03:22:27.900Z,95547.78
2023-02-06T03:27:30.963Z,95558.56
2023-02-06T03:32:40.318Z,95561.69
2023-02-06T03:37:44.270Z,95558.69
2023-02-06T03:42:50.328Z,95541.03
2023-02-06T03:47:55.394Z,95536.66
2023-02-06T03:53:01.396Z,95538.31
2023-02-06T03:58:06.489Z,95532.16
2023-02-06T04:03:09.819Z,95526.78
2023-02-06T04:08:12.645Z,95518.78
2023-02-06T04:13:14.213Z,95534.09
2023-02-06T04:18:15.749Z,95515.56
2023-02-06T04:23:18.627Z,95524.38
2023-02-06T04:28:20.231Z,95519.50
2023-02-06T04:33:21.840Z,95516.53
2023-02-06T04:38:24.785Z,95518.06
2023-02-06T04:43:26.368Z,95523.91
2023-02-06T04:48:28.137Z,95514.44
2023-02-06T04:53:31.037Z,95514.91
2023-02-06T04:58:33.517Z,95520.94
2023-02-06T05:03:35.097Z,95519.44
2023-02-06T05:08:38.000Z,95524.50
2023-02-06T05:13:39.558Z,95527.03
2023-02-06T05:18:42.839Z,95524.94
2023-02-06T05:23:45.685Z,95528.03
2023-02-06T05:28:47.436Z,95527.81
2023-02-06T05:33:52.226Z,95522.75
2023-02-06T05:38:55.474Z,95510.44
2023-02-06T05:43:57.018Z,95510.84
2023-02-06T05:48:58.527Z,95517.25
2023-02-06T05:54:01.568Z,95506.81
2023-02-06T05:59:03.216Z,95518.66
2023-02-06T06:04:05.269Z,95519.78
2023-02-06T06:09:08.346Z,95523.63
2023-02-06T06:14:11.390Z,95515.28
2023-02-06T06:19:12.905Z,95523.25
2023-02-06T06:24:15.880Z,95521.50
2023-02-06T06:29:17.411Z,95522.59
2023-02-06T06:34:19.022Z,95527.75
2023-02-06T06:39:21.974Z,95535.38
2023-02-06T06:44:23.752Z,95530.75
2023-02-06T06:49:25.309Z,95538.06
2023-02-06T06:54:28.233Z,95537.13
2023-02-06T06:59:29.821Z,95535.13
2023-02-06T07:04:31.643Z,95541.00
2023-02-06T07:09:34.717Z,95532.78
2023-02-06T07:14:36.223Z,95535.56
2023-02-06T07:19:37.882Z,95536.19
2023-02-06T07:24:40.935Z,95546.94
2023-02-06T07:29:42.511Z,95546.25
2023-02-06T07:34:44.098Z,95543.66
2023-02-06T07:39:46.975Z,95548.69
2023-02-06T07:44:48.591Z,95544.88
2023-02-06T07:49:50.101Z,95536.59
2023-02-06T07:54:53.011Z,95542.69
2023-02-06T07:59:54.636Z,95557.06
2023-02-06T08:04:56.145Z,95540.78
2023-02-06T08:09:59.069Z,95538.91
2023-02-06T08:15:00.603Z,95539.03
2023-02-06T08:20:02.132Z,95533.22
2023-02-06T08:25:06.004Z,95534.34
2023-02-06T08:30:08.556Z,95535.75
2023-02-06T08:35:11.679Z,95546.16
2023-02-06T08:40:15.083Z,95551.03
2023-02-06T08:45:16.561Z,95550.81
2023-02-06T08:50:18.018Z,95545.53
2023-02-06T08:55:20.874Z,95542.69
2023-02-06T09:00:26.979Z,95546.13
2023-02-06T09:05:29.834Z,95531.03
2023-02-06T09:10:32.662Z,95540.84
2023-02-06T09:15:35.653Z,95536.31
2023-02-06T09:20:37.416Z,95526.38
2023-02-06T09:25:40.403Z,95533.44
2023-02-06T09:30:42.013Z,95531.63
2023-02-06T09:35:43.533Z,95514.06
2023-02-06T09:40:46.489Z,95517.53
2023-02-06T09:45:51.583Z,95518.03
2023-02-06T09:51:03.762Z,95515.13
2023-02-06T09:56:15.543Z,95500.81
2023-02-06T10:01:23.754Z,95505.81
2023-02-06T10:06:27.810Z,95505.06
2023-02-06T10:11:42.760Z,95496.91
2023-02-06T10:16:47.632Z,95489.97
2023-02-06T10:21:55.552Z,95484.53
2023-02-06T10:27:01.201Z,95478.69
2023-02-06T10:32:24.152Z,95479.53
2023-02-06T10:37:47.490Z,95480.69
2023-02-06T10:42:56.402Z,95477.78
2023-02-06T10:48:03.687Z,95466.66
2023-02-06T10:53:13.370Z,95460.03
2023-02-06T10:58:20.236Z,95446.84
2023-02-06T11:03:26.673Z,95438.72
2023-02-06T11:08:31.692Z,95438.31
2023-02-06T11:13:38.411Z,95433.84
2023-02-06T11:18:44.017Z,95430.59
2023-02-06T11:23:45.605Z,95421.09
2023-02-06T11:28:53.348Z,95415.91
2023-02-06T11:33:56.930Z,95404.31
2023-02-06T11:39:00.615Z,95406.13
2023-02-06T11:44:04.099Z,95390.78
2023-02-06T11:49:21.259Z,95390.44
2023-02-06T11:54:25.606Z,95402.78
2023-02-06T11:59:29.587Z,95409.84
2023-02-06T12:04:35.168Z,95397.31
2023-02-06T12:09:36.792Z,95391.47
2023-02-06T12:14:44.250Z,95385.81
2023-02-06T12:19:48.902Z,95377.88
2023-02-06T12:24:57.154Z,95376.22
2023-02-06T12:30:06.041Z,95364.28
2023-02-06T12:35:15.724Z,95365.25
2023-02-06T12:40:26.712Z,95353.09
2023-02-06T12:45:39.880Z,95353.06
2023-02-06T12:50:46.389Z,95355.66
2023-02-06T12:55:55.138Z,95343.16
2023-02-06T13:01:27.975Z,95349.75
2023-02-06T13:06:42.415Z,95337.19
2023-02-06T13:11:44.114Z,95339.53
2023-02-06T13:16:52.106Z,95316.13
2023-02-06T13:22:14.200Z,95328.66
2023-02-06T13:27:16.958Z,95326.97
2023-02-06T13:32:55.901Z,95340.28
2023-02-06T13:38:24.435Z,95339.03
2023-02-06T13:43:30.276Z,95330.97
2023-02-06T13:48:59.212Z,95337.09
2023-02-06T13:54:34.416Z,95342.63
2023-02-06T13:59:40.510Z,95342.78
2023-02-06T14:04:45.142Z,95337.09
2023-02-06T14:10:02.375Z,95331.88
2023-02-06T14:15:19.334Z,95348.66
2023-02-06T14:20:33.007Z,95341.59
2023-02-06T14:25:55.926Z,95337.28
2023-02-06T14:31:06.784Z,95339.41
2023-02-06T14:36:23.399Z,95348.81
2023-02-06T14:41:28.670Z,95344.28
2023-02-06T14:46:31.280Z,95348.63
2023-02-06T14:51:38.930Z,95350.50
2023-02-06T14:56:40.682Z,95338.59
2023-02-06T15:01:43.702Z,95333.22
2023-02-06T15:06:53.959Z,95327.97
2023-02-06T15:11:57.202Z,95343.41
2023-02-06T15:16:59.017Z,95348.00
2023-02-06T15:22:05.741Z,95345.25
2023-02-06T15:27:15.401Z,95342.22
2023-02-06T15:32:27.754Z,95338.31
2023-02-06T15:37:33.517Z,95341.66
2023-02-06T15:42:36.364Z,95337.16
2023-02-06T15:47:40.982Z,95334.44
2023-02-06T15:52:44.166Z,95325.78
2023-02-06T15:57:46.011Z,95332.34
2023-02-06T16:02:47.720Z,95324.63
2023-02-06T16:07:50.833Z,95316.16
2023-02-06T16:12:53.410Z,95315.97
2023-02-06T16:17:55.500Z,95310.84
2023-02-06T16:23:18.693Z,95318.06
2023-02-06T16:28:23.493Z,95318.59
2023-02-06T16:33:32.899Z,95321.16
2023-02-06T16:38:35.817Z,95315.94
2023-02-06T16:43:37.386Z,95314.22
2023-02-06T16:48:38.928Z,95306.06
2023-02-06T16:53:42.257Z,95305.75
2023-02-06T16:58:44.319Z,95301.44
2023-02-06T17:03:46.072Z,95300.47
2023-02-06T17:08:50.988Z,95312.78
2023-02-06T17:13:52.529Z,95318.16
2023-02-06T17:18:54.363Z,95320.84
2023-02-06T17:23:57.230Z,95321.69
2023-02-06T17:28:58.776Z,95320.38
2023-02-06T17:34:00.341Z,95325.19
2023-02-06T17:39:03.252Z,95318.69
2023-02-06T17:44:05.042Z,95311.84
2023-02-06T17:49:06.563Z,95322.34
2023-02-06T17:54:10.487Z,95318.00
2023-02-06T17:59:12.001Z,95325.50
2023-02-06T18:04:13.875Z,95327.47
2023-02-06T18:09:16.761Z,95335.91
2023-02-06T18:14:18.380Z,95321.94
2023-02-06T18:19:19.941Z,95324.91
2023-02-06T18:24:23.018Z,95322.09
2023-02-06T18:29:24.574Z,95321.00
2023-02-06T18:34:26.169Z,95313.88
2023-02-06T18:39:29.187Z,95321.44
2023-02-06T18:44:31.201Z,95317.34
2023-02-06T18:49:33.941Z,95306.06
2023-02-06T18:54:37.039Z,95298.25
2023-02-06T18:59:38.600Z,95307.78
2023-02-06T19:04:40.147Z,95293.44
2023-02-06T19:09:43.122Z,95289.88
2023-02-06T19:14:44.759Z,95287.59
2023-02-06T19:19:46.447Z,95287.44
2023-02-06T19:24:49.788Z,95282.22
2023-02-06T19:29:51.495Z,95286.81
2023-02-06T19:34:53.096Z,95279.63
2023-02-06T19:39:58.984Z,95287.81
2023-02-06T19:45:00.570Z,95293.38
2023-02-06T19:50:02.251Z,95297.44
2023-02-06T19:55:05.616Z,95313.91
2023-02-06T20:00:08.556Z,95306.25
2023-02-06T20:05:10.149Z,95298.06
2023-02-06T20:10:13.016Z,95292.06
2023-02-06T20:15:14.815Z,95291.25
2023-02-06T20:20:16.671Z,95293.03
2023-02-06T20:25:19.653Z,95293.25
2023-02-06T20:30:21.641Z,95297.00
2023-02-06T20:35:23.224Z,95294.41
2023-02-06T20:40:26.162Z,95301.78
2023-02-06T20:45:27.747Z,95304.59
2023-02-06T20:50:30.729Z,95309.88
2023-02-06T20:55:33.829Z,95313.75
2023-02-06T21:00:36.305Z,95310.63
2023-02-06T21:05:38.168Z,95314.94
2023-02-06T21:10:41.113Z,95319.19
2023-02-06T21:15:42.972Z,95324.09
2023-02-06T21:20:44.510Z,95325.13
2023-02-06T21:25:51.661Z,95323.22
2023-02-06T21:30:59.696Z,95309.06
2023-02-06T21:36:02.175Z,95287.16
2023-02-06T21:41:07.024Z,95302.78
2023-02-06T21:46:09.628Z,95320.63
2023-02-06T21:51:13.380Z,95313.84
2023-02-06T21:56:18.109Z,95323.53
2023-02-06T22:01:21.504Z,95309.56
2023-02-06T22:06:23.115Z,95306.78
2023-02-06T22:11:27.421Z,95323.75
2023-02-06T22:16:29.800Z,95322.97
2023-02-06T22:21:32.291Z,95303.53
2023-02-06T22:26:36.654Z,95281.34
2023-02-06T22:31:39.813Z,95291.78
2023-02-06T22:36:41.471Z,95304.66
2023-02-06T22:41:46.119Z,95294.25
2023-02-06T22:46:49.493Z,95289.72
2023-02-06T22:51:51.125Z,95285.63
2023-02-06T22:56:53.962Z,95294.56
2023-02-06T23:01:57.302Z,95298.44
2023-02-06T23:06:58.868Z,95312.97
2023-02-06T23:12:02.266Z,95297.63
2023-02-06T23:17:04.213Z,95297.88
2023-02-06T23:22:05.884Z,95303.38
2023-02-06T23:27:08.833Z,95312.91
2023-02-06T23:32:10.381Z,95316.84
2023-02-06T23:37:11.973Z,95321.06
2023-02-06T23:42:14.918Z,95319.44
2023-02-06T23:47:16.513Z,95337.66
2023-02-06T23:52:18.054Z,95339.75
2023-02-06T23:57:20.953Z,95341.63
